Time;durP1;ratioP1;P1;durP2;ratioP2;P2;SDS_P1;SDS_P2;PMS_P1;PMS_P2;Temp;Humidity;BMP_temperature;BMP_pressure;BME280_temperature;BME280_humidity;BME280_pressure;Samples;Min_cycle;Max_cycle;Signal;HPM_P1;HPM_P2
2021/12/28 00:02:17;;;;;;;1.55;0.60;;;5.40;87.60;;;;;;5008266;28;20410;-71
2021/12/28 00:04:50;;;;;;;1.65;0.60;;;5.50;87.60;;;;;;4963670;28;20038;-72
2021/12/28 00:07:27;;;;;;;0.97;0.47;;;5.40;87.60;;;;;;1576835;28;10150982;-72
2021/12/28 00:10:00;;;;;;;1.17;0.50;;;5.40;87.50;;;;;;3972276;28;10001082;-72
2021/12/28 00:12:37;;;;;;;0.70;0.47;;;5.40;87.50;;;;;;5011075;28;20401;-72
2021/12/28 00:15:07;;;;;;;0.85;0.50;;;5.40;87.50;;;;;;5011954;28;20046;-71
2021/12/28 00:20:26;;;;;;;1.40;0.60;;;5.50;87.50;;;;;;5012820;28;20041;-71
2021/12/28 00:22:54;;;;;;;1.13;0.38;;;5.50;87.60;;;;;;5011599;28;20042;-72
2021/12/28 00:25:21;;;;;;;2.03;0.80;;;5.50;87.60;;;;;;5012452;28;20053;-72
2021/12/28 00:27:48;;;;;;;0.95;0.40;;;5.50;87.60;;;;;;5011947;28;20054;-73
2021/12/28 00:30:17;;;;;;;1.13;0.57;;;5.50;87.70;;;;;;5012951;28;20049;-72
2021/12/28 00:32:46;;;;;;;1.77;0.70;;;5.50;87.70;;;;;;5012117;28;20046;-72
2021/12/28 00:35:13;;;;;;;1.15;0.60;;;5.40;87.70;;;;;;5012121;28;20058;-72
2021/12/28 00:37:40;;;;;;;1.58;0.68;;;5.40;87.70;;;;;;5011413;28;20046;-71
2021/12/28 00:40:10;;;;;;;1.30;0.70;;;5.50;87.70;;;;;;5010567;28;20077;-72
2021/12/28 00:42:40;;;;;;;1.10;0.40;;;5.50;87.80;;;;;;5012707;28;20045;-71
2021/12/28 00:45:08;;;;;;;1.75;0.50;;;5.50;87.70;;;;;;5011539;28;20060;-72
2021/12/28 00:47:35;;;;;;;1.80;0.70;;;5.50;87.70;;;;;;5012081;28;20479;-71
2021/12/28 00:50:02;;;;;;;1.55;0.47;;;5.50;87.70;;;;;;5009187;28;20507;-70
2021/12/28 00:52:31;;;;;;;1.67;0.70;;;5.50;87.70;;;;;;5011132;28;20065;-72
2021/12/28 00:54:58;;;;;;;1.85;0.98;;;5.50;87.70;;;;;;5026334;28;20156;-72
2021/12/28 00:57:26;;;;;;;1.70;0.50;;;5.50;87.70;;;;;;5012217;28;20054;-72
2021/12/28 00:59:53;;;;;;;0.95;0.55;;;5.50;87.70;;;;;;5011212;28;20042;-72
2021/12/28 01:02:20;;;;;;;1.02;0.63;;;5.60;87.80;;;;;;5009103;28;20034;-71
2021/12/28 01:04:47;;;;;;;1.60;0.70;;;5.50;87.70;;;;;;5010476;28;20057;-73
2021/12/28 01:07:14;;;;;;;2.35;0.98;;;5.60;87.90;;;;;;5011247;28;20508;-70
2021/12/28 01:09:42;;;;;;;2.45;1.02;;;5.60;87.90;;;;;;5010044;28;20050;-71
2021/12/28 01:12:10;;;;;;;1.55;0.80;;;5.60;88.00;;;;;;5010933;28;20131;-71
2021/12/28 01:14:39;;;;;;;1.50;1.10;;;5.60;88.10;;;;;;5005121;28;20050;-73
2021/12/28 01:17:06;;;;;;;1.90;0.95;;;5.60;88.10;;;;;;5007482;28;20038;-71
2021/12/28 01:19:33;;;;;;;2.10;0.90;;;5.60;88.20;;;;;;5007953;28;20511;-70
2021/12/28 01:22:01;;;;;;;2.03;0.73;;;5.60;88.20;;;;;;5008393;28;20127;-71
2021/12/28 01:24:34;;;;;;;3.03;1.08;;;5.60;88.20;;;;;;5009430;28;20054;-72
2021/12/28 01:27:01;;;;;;;2.92;0.73;;;5.70;88.20;;;;;;5004696;28;20041;-71
2021/12/28 01:29:29;;;;;;;2.03;0.98;;;5.70;88.20;;;;;;5006828;28;20045;-73
2021/12/28 01:31:57;;;;;;;2.63;0.90;;;5.60;88.20;;;;;;5008725;28;20079;-72
2021/12/28 01:34:24;;;;;;;2.50;1.08;;;5.60;88.20;;;;;;5004247;28;20181;-73
2021/12/28 01:36:51;;;;;;;1.92;0.88;;;5.60;88.30;;;;;;5007167;28;20130;-71
2021/12/28 01:39:18;;;;;;;1.30;0.93;;;5.60;88.30;;;;;;5006468;28;20050;-70
2021/12/28 01:41:46;;;;;;;2.28;0.95;;;5.60;88.30;;;;;;5007074;28;20100;-71
2021/12/28 01:44:14;;;;;;;2.30;0.90;;;5.70;88.30;;;;;;5007945;28;20053;-74
2021/12/28 01:46:41;;;;;;;2.08;1.15;;;5.70;88.30;;;;;;5008023;28;20124;-70
2021/12/28 01:49:10;;;;;;;2.60;1.15;;;5.70;88.30;;;;;;5008168;28;20058;-71
2021/12/28 01:51:38;;;;;;;2.50;0.97;;;5.60;88.40;;;;;;5006860;28;20132;-73
2021/12/28 01:54:07;;;;;;;3.03;1.05;;;5.70;88.30;;;;;;5009471;28;20084;-71
2021/12/28 01:56:36;;;;;;;1.67;0.77;;;5.70;88.30;;;;;;5010419;28;20050;-71
2021/12/28 01:59:05;;;;;;;1.98;0.80;;;5.70;88.30;;;;;;5010513;28;20121;-72
2021/12/28 02:01:32;;;;;;;2.78;1.25;;;5.70;88.30;;;;;;5007011;28;20052;-71
2021/12/28 02:03:59;;;;;;;1.80;0.90;;;5.70;88.30;;;;;;5010271;28;20038;-72
2021/12/28 02:06:28;;;;;;;2.58;1.08;;;5.70;88.40;;;;;;5010475;28;20042;-71
2021/12/28 02:08:56;;;;;;;2.65;1.17;;;5.70;88.40;;;;;;5008738;28;20050;-70
2021/12/28 02:11:23;;;;;;;4.00;1.65;;;5.70;88.40;;;;;;5010272;28;20070;-71
2021/12/28 02:13:51;;;;;;;3.03;1.33;;;5.70;88.40;;;;;;5010107;28;20515;-71
2021/12/28 02:16:18;;;;;;;3.03;1.55;;;5.70;88.40;;;;;;5009543;28;20061;-71
2021/12/28 02:18:45;;;;;;;6.97;1.73;;;5.70;88.40;;;;;;5010472;28;20052;-70
2021/12/28 02:21:14;;;;;;;5.70;1.63;;;5.70;88.30;;;;;;5010380;28;20052;-70
2021/12/28 02:23:41;;;;;;;2.85;1.08;;;5.70;88.40;;;;;;5009841;28;20049;-71
2021/12/28 02:26:08;;;;;;;4.32;1.92;;;5.70;88.30;;;;;;5008861;28;20046;-72
2021/12/28 02:28:35;;;;;;;5.88;2.40;;;5.70;88.30;;;;;;5009815;28;20084;-71
2021/12/28 02:31:02;;;;;;;4.40;1.98;;;5.70;88.30;;;;;;5010478;28;20048;-72
2021/12/28 02:33:30;;;;;;;4.63;1.33;;;5.70;88.30;;;;;;5009797;28;20491;-71
2021/12/28 02:35:59;;;;;;;3.45;2.10;;;5.70;88.30;;;;;;5009813;28;20052;-71
2021/12/28 02:38:29;;;;;;;4.25;1.75;;;5.70;88.20;;;;;;5010251;28;20128;-72
2021/12/28 02:40:56;;;;;;;3.15;1.60;;;5.70;88.20;;;;;;5009870;28;20060;-71
2021/12/28 02:43:23;;;;;;;3.63;1.33;;;5.70;88.10;;;;;;5010059;28;20125;-72
2021/12/28 02:45:53;;;;;;;4.18;1.40;;;5.70;88.10;;;;;;5009919;28;20121;-72
2021/12/28 02:48:21;;;;;;;3.72;1.75;;;5.70;88.10;;;;;;5009842;28;20069;-71
2021/12/28 02:50:50;;;;;;;3.63;1.20;;;5.70;88.10;;;;;;5009963;28;20045;-72
2021/12/28 02:53:20;;;;;;;3.35;1.63;;;5.70;88.10;;;;;;5008913;28;20065;-71
2021/12/28 02:55:49;;;;;;;4.55;1.80;;;5.70;88.10;;;;;;5009056;28;20476;-71
2021/12/28 02:58:25;;;;;;;6.78;2.17;;;5.70;88.10;;;;;;5007917;28;20042;-72
2021/12/28 03:00:58;;;;;;;3.53;1.52;;;5.70;88.10;;;;;;5005552;28;20034;-72
2021/12/28 03:03:28;;;;;;;3.03;1.58;;;5.70;88.10;;;;;;5008454;28;20045;-71
2021/12/28 03:05:57;;;;;;;4.30;1.65;;;5.70;88.10;;;;;;5008504;28;20057;-72
2021/12/28 03:08:27;;;;;;;4.00;1.80;;;5.70;88.10;;;;;;5007289;28;20128;-71
2021/12/28 03:10:56;;;;;;;4.38;1.77;;;5.70;88.10;;;;;;5007912;28;20113;-71
2021/12/28 03:13:28;;;;;;;7.05;2.38;;;5.70;88.10;;;;;;5010355;28;20034;-72
2021/12/28 03:15:55;;;;;;;4.28;1.83;;;5.70;88.20;;;;;;5010422;28;20056;-73
2021/12/28 03:18:22;;;;;;;4.20;2.17;;;5.70;88.20;;;;;;5011568;28;20052;-72
2021/12/28 03:20:50;;;;;;;3.83;1.80;;;5.70;88.20;;;;;;5010406;28;20071;-71
2021/12/28 03:23:18;;;;;;;5.13;1.80;;;5.70;88.20;;;;;;5011325;28;20038;-71
2021/12/28 03:25:46;;;;;;;5.75;2.65;;;5.70;88.20;;;;;;5010114;28;20046;-72
2021/12/28 03:28:17;;;;;;;5.05;2.03;;;5.70;88.20;;;;;;5011086;28;20049;-73
2021/12/28 03:30:45;;;;;;;4.25;1.50;;;5.70;88.20;;;;;;5011489;28;20116;-72
2021/12/28 03:33:12;;;;;;;5.03;2.10;;;5.70;88.20;;;;;;5011647;28;20053;-72
2021/12/28 03:35:40;;;;;;;4.05;1.88;;;5.70;88.20;;;;;;5012426;28;20052;-71
2021/12/28 03:38:07;;;;;;;4.53;2.20;;;5.70;88.20;;;;;;5012442;28;20510;-71
2021/12/28 03:40:34;;;;;;;6.15;1.92;;;5.70;88.20;;;;;;5013177;28;20042;-71
2021/12/28 03:43:01;;;;;;;5.38;1.60;;;5.70;88.20;;;;;;5012579;28;20064;-71
2021/12/28 03:45:31;;;;;;;4.72;1.95;;;5.70;88.30;;;;;;5013895;28;20053;-71
2021/12/28 03:47:58;;;;;;;4.13;1.65;;;5.70;88.20;;;;;;5013173;28;20053;-71
2021/12/28 03:50:26;;;;;;;6.82;2.38;;;5.70;88.20;;;;;;5012434;28;20503;-70
2021/12/28 03:52:54;;;;;;;6.22;1.77;;;5.70;88.20;;;;;;5012096;28;20112;-72
2021/12/28 03:55:21;;;;;;;3.83;1.63;;;5.70;88.20;;;;;;5013089;28;20045;-71
2021/12/28 03:57:48;;;;;;;5.38;2.17;;;5.70;88.20;;;;;;5013013;28;20049;-72
2021/12/28 04:00:18;;;;;;;5.20;1.90;;;5.70;88.30;;;;;;5009512;28;20038;-72
2021/12/28 04:02:47;;;;;;;5.82;2.10;;;5.80;88.30;;;;;;5011946;28;20488;-70
2021/12/28 04:05:16;;;;;;;4.85;1.65;;;5.80;88.30;;;;;;5012961;28;20064;-70
2021/12/28 04:07:43;;;;;;;5.22;1.75;;;5.80;88.30;;;;;;5011840;28;20050;-72
2021/12/28 04:10:12;;;;;;;4.82;1.70;;;5.80;88.40;;;;;;5012421;28;20081;-71
2021/12/28 04:12:39;;;;;;;4.88;1.75;;;5.80;88.40;;;;;;5012366;28;20136;-72
2021/12/28 04:15:09;;;;;;;3.90;1.70;;;5.80;88.40;;;;;;5012054;28;20053;-73
2021/12/28 04:17:38;;;;;;;4.57;1.92;;;5.80;88.50;;;;;;5011488;28;20500;-71
2021/12/28 04:20:10;;;;;;;3.90;1.30;;;5.80;88.50;;;;;;5012052;28;20050;-71
2021/12/28 04:22:44;;;;;;;5.35;2.85;;;5.80;88.50;;;;;;5011665;28;20050;-71
2021/12/28 04:25:12;;;;;;;5.38;1.92;;;5.90;88.50;;;;;;5011106;28;20056;-71
2021/12/28 04:27:39;;;;;;;4.75;1.95;;;5.90;88.60;;;;;;5012036;28;20100;-70
2021/12/28 04:30:09;;;;;;;4.68;2.03;;;5.90;88.60;;;;;;5012492;28;20049;-73
2021/12/28 04:32:37;;;;;;;4.57;2.13;;;5.90;88.50;;;;;;5011297;28;20395;-70
2021/12/28 04:35:07;;;;;;;8.77;3.00;;;5.90;88.60;;;;;;5010016;28;20493;-69
2021/12/28 04:37:34;;;;;;;4.00;1.83;;;5.90;88.70;;;;;;5010441;28;20050;-72
2021/12/28 04:40:00;;;;;;;4.03;1.42;;;5.90;88.70;;;;;;5024740;28;20192;-71
2021/12/28 04:42:30;;;;;;;5.20;1.65;;;5.90;88.60;;;;;;5009117;28;20081;-72
2021/12/28 04:44:57;;;;;;;4.10;1.67;;;5.90;88.60;;;;;;5009765;28;20040;-73
2021/12/28 04:47:24;;;;;;;3.42;1.35;;;5.90;88.50;;;;;;5010530;28;20159;-71
2021/12/28 04:49:51;;;;;;;3.92;1.73;;;5.90;88.50;;;;;;5009888;28;20046;-71
2021/12/28 04:52:20;;;;;;;4.20;1.60;;;6.00;88.60;;;;;;5010403;28;20503;-72
2021/12/28 04:54:46;;;;;;;5.05;2.20;;;5.90;88.70;;;;;;5008555;28;20480;-72
2021/12/28 04:57:13;;;;;;;4.05;1.80;;;6.00;88.70;;;;;;5010029;28;20396;-72
2021/12/28 04:59:40;;;;;;;5.38;1.92;;;6.00;88.70;;;;;;5008866;28;20046;-71
2021/12/28 05:02:07;;;;;;;5.05;1.67;;;6.00;88.70;;;;;;5007803;28;20692;-73
2021/12/28 05:04:34;;;;;;;5.35;1.75;;;6.00;88.80;;;;;;5009218;28;20047;-72
2021/12/28 05:07:01;;;;;;;7.65;1.80;;;6.00;88.90;;;;;;5009022;28;20081;-71
2021/12/28 05:09:30;;;;;;;5.10;1.85;;;6.00;88.90;;;;;;5009201;28;20058;-72
2021/12/28 05:11:57;;;;;;;5.35;1.80;;;6.00;88.90;;;;;;5010225;28;20064;-71
2021/12/28 05:14:24;;;;;;;4.78;2.15;;;6.00;88.90;;;;;;5025888;28;20406;-70
2021/12/28 05:16:51;;;;;;;5.13;2.38;;;6.00;89.00;;;;;;5010911;28;20124;-70
2021/12/28 05:19:18;;;;;;;4.72;2.33;;;6.00;89.00;;;;;;5011626;28;20112;-72
2021/12/28 05:21:45;;;;;;;3.60;1.63;;;6.10;89.00;;;;;;5011730;28;20148;-71
2021/12/28 05:24:12;;;;;;;5.85;1.90;;;6.10;89.10;;;;;;5010132;28;20052;-72
2021/12/28 05:26:40;;;;;;;4.50;1.77;;;6.10;89.10;;;;;;5011277;28;20503;-72
2021/12/28 05:29:07;;;;;;;4.32;1.80;;;6.10;89.10;;;;;;5010993;28;20037;-71
2021/12/28 05:31:34;;;;;;;4.25;1.70;;;6.10;89.00;;;;;;5010789;28;20135;-71
2021/12/28 05:34:01;;;;;;;5.05;1.30;;;6.10;89.10;;;;;;5010383;28;20120;-73
2021/12/28 05:36:28;;;;;;;4.35;2.03;;;6.10;89.20;;;;;;5010015;28;20492;-70
2021/12/28 05:38:55;;;;;;;4.70;1.90;;;6.10;89.20;;;;;;5010863;28;20173;-71
2021/12/28 05:41:22;;;;;;;4.18;1.88;;;6.10;89.30;;;;;;5010465;28;20565;-70
2021/12/28 05:43:50;;;;;;;4.65;1.98;;;6.10;89.50;;;;;;5010997;28;20042;-71
2021/12/28 05:46:18;;;;;;;4.53;1.65;;;6.10;89.30;;;;;;5010595;28;20500;-70
2021/12/28 05:48:47;;;;;;;4.63;1.65;;;6.10;89.50;;;;;;5009417;28;20691;-71
2021/12/28 05:51:14;;;;;;;4.32;1.70;;;6.10;89.40;;;;;;5010630;28;20053;-72
2021/12/28 05:53:41;;;;;;;3.78;1.65;;;6.10;89.40;;;;;;5011006;28;20531;-71
2021/12/28 05:56:08;;;;;;;3.13;1.60;;;6.10;89.40;;;;;;5009721;28;20041;-72
2021/12/28 05:58:35;;;;;;;5.25;1.52;;;6.10;89.40;;;;;;5010511;28;20092;-72
2021/12/28 06:01:04;;;;;;;4.63;1.88;;;6.20;89.60;;;;;;5006748;28;20037;-70
2021/12/28 06:03:31;;;;;;;3.97;2.00;;;6.20;89.50;;;;;;5009351;28;20046;-72
2021/12/28 06:05:58;;;;;;;5.32;1.15;;;6.20;89.60;;;;;;5009789;28;20045;-70
2021/12/28 06:08:26;;;;;;;3.83;1.45;;;6.20;89.50;;;;;;5009363;28;20077;-70
2021/12/28 06:10:53;;;;;;;4.55;1.42;;;6.10;89.50;;;;;;5010826;28;20084;-71
2021/12/28 06:13:20;;;;;;;3.53;1.15;;;6.20;89.50;;;;;;5009843;28;20077;-70
2021/12/28 06:15:47;;;;;;;3.80;1.42;;;6.20;89.50;;;;;;5007834;28;20046;-72
2021/12/28 06:18:16;;;;;;;3.33;1.27;;;6.20;89.50;;;;;;5008514;28;20042;-73
2021/12/28 06:20:43;;;;;;;2.90;1.13;;;6.20;89.60;;;;;;5023877;28;20104;-72
2021/12/28 06:23:11;;;;;;;3.00;1.40;;;6.20;89.60;;;;;;5008510;28;20375;-71
2021/12/28 06:25:39;;;;;;;3.08;1.17;;;6.20;89.60;;;;;;5006750;28;20117;-71
2021/12/28 06:28:06;;;;;;;4.10;1.63;;;6.20;89.60;;;;;;5008224;28;20049;-71
2021/12/28 06:30:34;;;;;;;4.60;1.33;;;6.20;89.60;;;;;;5008344;28;20030;-72
2021/12/28 06:33:01;;;;;;;3.50;2.03;;;6.20;89.70;;;;;;5008118;28;20046;-72
2021/12/28 06:35:33;;;;;;;4.80;1.95;;;6.20;89.80;;;;;;5007827;28;20054;-71
2021/12/28 06:38:01;;;;;;;3.30;1.27;;;6.20;89.70;;;;;;5007742;28;20074;-71
2021/12/28 06:40:29;;;;;;;2.17;0.90;;;6.20;89.70;;;;;;5007131;28;20129;-72
2021/12/28 06:42:56;;;;;;;2.85;0.85;;;6.20;89.70;;;;;;5008005;28;20116;-71
2021/12/28 06:45:23;;;;;;;3.03;1.10;;;6.20;89.70;;;;;;5008218;28;20052;-73
2021/12/28 06:47:50;;;;;;;2.17;0.95;;;6.20;89.70;;;;;;5011463;28;20038;-72
2021/12/28 06:50:17;;;;;;;2.72;1.15;;;6.20;89.70;;;;;;5011896;28;20042;-71
2021/12/28 06:52:45;;;;;;;1.55;0.93;;;6.30;89.70;;;;;;5012924;28;20042;-71
2021/12/28 06:55:13;;;;;;;2.53;0.90;;;6.20;89.70;;;;;;5013544;28;20563;-72
2021/12/28 06:57:40;;;;;;;2.97;0.85;;;6.20;89.70;;;;;;5027817;28;20053;-72
2021/12/28 07:00:11;;;;;;;4.20;1.20;;;6.30;89.80;;;;;;5011283;28;20145;-72
2021/12/28 07:02:38;;;;;;;1.58;0.70;;;6.20;89.80;;;;;;5012080;28;20050;-71
2021/12/28 07:05:06;;;;;;;1.55;0.70;;;6.30;89.80;;;;;;5013923;28;20050;-72
2021/12/28 07:07:33;;;;;;;3.15;0.93;;;6.20;89.90;;;;;;5013764;28;20060;-71
2021/12/28 07:10:08;;;;;;;1.80;0.88;;;6.20;89.90;;;;;;5013353;28;20058;-70
2021/12/28 07:12:35;;;;;;;1.58;0.68;;;6.20;90.00;;;;;;5013218;28;20132;-71
2021/12/28 07:15:02;;;;;;;2.65;1.00;;;6.30;90.00;;;;;;5013126;28;20046;-71
2021/12/28 07:17:31;;;;;;;1.75;0.88;;;6.30;90.00;;;;;;5013318;28;20049;-71
2021/12/28 07:19:59;;;;;;;0.90;0.45;;;6.30;90.00;;;;;;5013470;28;20050;-71
2021/12/28 07:22:26;;;;;;;1.60;0.80;;;6.30;90.10;;;;;;5013078;28;20129;-71
2021/12/28 07:24:52;;;;;;;1.55;0.80;;;6.30;90.10;;;;;;5012877;28;20065;-72
2021/12/28 07:27:21;;;;;;;1.20;0.50;;;6.30;90.00;;;;;;5012541;28;20129;-70
2021/12/28 07:29:48;;;;;;;1.60;0.75;;;6.30;90.00;;;;;;5013013;28;20123;-71
2021/12/28 07:32:15;;;;;;;0.98;0.55;;;6.30;90.00;;;;;;5013343;28;20427;-71
2021/12/28 07:34:42;;;;;;;1.65;0.90;;;6.30;90.00;;;;;;5012303;28;20488;-71
2021/12/28 07:37:09;;;;;;;3.85;0.75;;;6.30;90.10;;;;;;5012492;28;20129;-71
2021/12/28 07:39:36;;;;;;;1.33;0.63;;;6.30;90.10;;;;;;5012705;28;20042;-70
2021/12/28 07:42:04;;;;;;;1.30;0.50;;;6.30;90.10;;;;;;5012146;28;20048;-72
2021/12/28 07:44:33;;;;;;;1.70;0.60;;;6.40;89.90;;;;;;5012797;28;20534;-71
2021/12/28 07:47:01;;;;;;;1.98;0.75;;;6.30;89.80;;;;;;5012510;28;20046;-70
2021/12/28 07:49:31;;;;;;;1.40;0.43;;;6.40;89.90;;;;;;5012770;28;20050;-71
2021/12/28 07:51:58;;;;;;;0.90;0.32;;;6.30;89.80;;;;;;5012648;28;20068;-70
2021/12/28 07:54:25;;;;;;;1.40;0.57;;;6.30;89.90;;;;;;5010591;28;20046;-72
2021/12/28 07:56:52;;;;;;;1.38;0.60;;;6.40;89.90;;;;;;5011177;28;20068;-71
2021/12/28 07:59:19;;;;;;;2.05;0.63;;;6.30;90.00;;;;;;5009559;28;20044;-70
2021/12/28 08:01:47;;;;;;;1.48;0.50;;;6.40;89.90;;;;;;5008208;28;20053;-74
2021/12/28 08:04:14;;;;;;;0.28;0.20;;;6.40;89.90;;;;;;5010061;28;20050;-73
2021/12/28 08:06:41;;;;;;;0.28;0.28;;;6.40;90.00;;;;;;5010060;28;20061;-71
2021/12/28 08:09:09;;;;;;;1.10;0.40;;;6.40;89.90;;;;;;5010141;28;20062;-73
2021/12/28 08:11:36;;;;;;;2.03;0.30;;;6.40;89.80;;;;;;5010130;28;20400;-70
2021/12/28 08:14:04;;;;;;;1.40;0.60;;;6.40;89.90;;;;;;5025009;28;20381;-72
2021/12/28 08:16:31;;;;;;;1.38;0.68;;;6.40;89.90;;;;;;5010847;28;20057;-70
2021/12/28 08:19:00;;;;;;;2.35;0.43;;;6.40;89.90;;;;;;5010087;28;20050;-71
2021/12/28 08:21:31;;;;;;;1.70;0.40;;;6.40;89.90;;;;;;5010764;28;20096;-69
2021/12/28 08:23:58;;;;;;;1.92;0.40;;;6.40;89.90;;;;;;5010061;28;20049;-71
2021/12/28 08:26:25;;;;;;;1.42;0.30;;;6.40;89.90;;;;;;5010459;28;20042;-72
2021/12/28 08:28:52;;;;;;;0.20;0.20;;;6.50;89.80;;;;;;5008837;28;20444;-74
2021/12/28 08:31:19;;;;;;;1.25;0.85;;;6.50;89.90;;;;;;5010513;28;20081;-72
2021/12/28 08:33:46;;;;;;;0.88;0.50;;;6.50;90.10;;;;;;5012162;28;20049;-72
2021/12/28 08:36:14;;;;;;;3.70;1.40;;;6.50;90.10;;;;;;5012406;28;20096;-70
2021/12/28 08:38:43;;;;;;;5.50;2.00;;;6.60;90.10;;;;;;5011021;28;20040;-71
2021/12/28 08:41:10;;;;;;;6.13;2.45;;;6.50;90.10;;;;;;5011559;28;20050;-71
2021/12/28 08:43:38;;;;;;;4.75;1.65;;;6.60;90.10;;;;;;5011576;28;20056;-72
2021/12/28 08:46:06;;;;;;;3.80;1.13;;;6.60;90.00;;;;;;5011466;28;20117;-72
2021/12/28 08:48:33;;;;;;;3.35;0.90;;;6.60;90.00;;;;;;5011826;28;20054;-72
2021/12/28 08:51:00;;;;;;;3.47;1.17;;;6.60;89.90;;;;;;5011574;28;20045;-72
2021/12/28 08:53:31;;;;;;;2.78;0.93;;;6.60;89.90;;;;;;5011376;28;20407;-71
2021/12/28 08:55:58;;;;;;;1.65;0.80;;;6.60;89.90;;;;;;5011002;28;20048;-71
2021/12/28 08:58:25;;;;;;;1.52;0.65;;;6.60;89.90;;;;;;5010770;28;20045;-70
2021/12/28 09:00:52;;;;;;;1.55;0.70;;;6.60;90.00;;;;;;5009593;28;20054;-70
2021/12/28 09:03:18;;;;;;;1.30;0.43;;;6.60;89.90;;;;;;5011848;28;20045;-72
2021/12/28 09:05:45;;;;;;;1.60;0.57;;;6.60;90.00;;;;;;5011190;28;20125;-72
2021/12/28 09:08:16;;;;;;;2.25;0.50;;;6.60;90.00;;;;;;5007995;28;20500;-70
2021/12/28 09:10:45;;;;;;;1.95;0.55;;;6.70;90.00;;;;;;5009845;28;20049;-71
2021/12/28 09:13:14;;;;;;;1.25;0.50;;;6.60;90.10;;;;;;5009703;28;21562;-71
2021/12/28 09:15:41;;;;;;;2.38;0.75;;;6.70;90.10;;;;;;5010763;28;20049;-71
2021/12/28 09:18:09;;;;;;;2.03;0.77;;;6.70;90.00;;;;;;5010144;28;20577;-73
2021/12/28 09:20:36;;;;;;;1.05;0.47;;;6.70;90.00;;;;;;5010772;28;20116;-71
2021/12/28 09:23:03;;;;;;;1.88;0.63;;;6.70;89.90;;;;;;5010411;28;20053;-69
2021/12/28 09:25:30;;;;;;;1.02;0.50;;;6.70;89.90;;;;;;5010864;28;20183;-70
2021/12/28 09:27:59;;;;;;;2.05;0.88;;;6.70;90.00;;;;;;5011551;28;20054;-71
2021/12/28 09:30:26;;;;;;;0.90;0.38;;;6.70;89.90;;;;;;5010335;28;20077;-71
2021/12/28 09:32:53;;;;;;;0.82;0.47;;;6.80;89.80;;;;;;5009338;28;20537;-71
2021/12/28 09:35:20;;;;;;;1.35;0.57;;;6.80;89.90;;;;;;5009118;28;20522;-72
2021/12/28 09:37:47;;;;;;;1.23;0.57;;;6.80;89.80;;;;;;5009020;28;20116;-71
2021/12/28 09:40:15;;;;;;;0.45;0.30;;;6.80;89.80;;;;;;5008410;28;20109;-72
2021/12/28 09:42:42;;;;;;;1.83;0.65;;;6.80;90.00;;;;;;5008432;28;20038;-73
2021/12/28 09:45:13;;;;;;;1.70;0.68;;;6.80;89.90;;;;;;5007528;28;20115;-73
2021/12/28 09:47:41;;;;;;;;;;;6.80;90.00;;;;;;5009721;28;20046;-71
2021/12/28 09:50:12;;;;;;;0.40;0.30;;;6.80;89.90;;;;;;5007894;28;19968;-73
2021/12/28 09:52:39;;;;;;;0.57;0.38;;;6.90;89.90;;;;;;5008474;28;20038;-70
2021/12/28 09:55:07;;;;;;;0.50;0.30;;;6.90;90.00;;;;;;5008827;28;20507;-70
2021/12/28 09:57:34;;;;;;;1.17;0.38;;;6.90;90.10;;;;;;5008072;28;20041;-71
2021/12/28 10:00:01;;;;;;;1.95;0.38;;;6.90;90.10;;;;;;5008725;28;20049;-71
2021/12/28 10:02:32;;;;;;;1.90;0.50;;;7.00;90.10;;;;;;5008384;28;20057;-73
2021/12/28 10:05:04;;;;;;;2.88;0.65;;;7.00;90.10;;;;;;5008960;28;20133;-72
2021/12/28 10:07:35;;;;;;;1.67;0.70;;;7.00;90.00;;;;;;5008464;28;20046;-71
2021/12/28 10:10:06;;;;;;;;;;;7.10;89.90;;;;;;5008602;28;20049;-71
2021/12/28 10:12:36;;;;;;;0.95;0.40;;;7.10;89.80;;;;;;5008572;28;19925;-72
2021/12/28 10:15:06;;;;;;;2.30;0.70;;;7.10;89.80;;;;;;5011143;28;20045;-71
2021/12/28 10:17:35;;;;;;;0.95;0.43;;;7.10;89.80;;;;;;5009500;28;20053;-72
2021/12/28 10:20:05;;;;;;;0.77;0.40;;;7.10;89.90;;;;;;5010859;28;20399;-70
2021/12/28 10:22:35;;;;;;;2.08;0.60;;;7.10;89.80;;;;;;5015212;28;20312;-70
2021/12/28 10:25:07;;;;;;;1.83;0.52;;;7.20;89.80;;;;;;5017175;28;20504;-73
2021/12/28 10:27:35;;;;;;;1.02;0.40;;;7.10;89.80;;;;;;5016242;28;20124;-71
2021/12/28 10:30:07;;;;;;;0.95;0.50;;;7.10;89.90;;;;;;5016945;28;20053;-70
2021/12/28 10:32:36;;;;;;;1.70;0.55;;;7.20;89.80;;;;;;5032442;28;20416;-70
2021/12/28 10:35:07;;;;;;;2.30;0.60;;;7.20;89.80;;;;;;5015546;28;20085;-69
2021/12/28 10:37:37;;;;;;;1.48;0.50;;;7.20;89.90;;;;;;5017223;28;20095;-71
2021/12/28 10:40:07;;;;;;;0.55;0.50;;;7.20;89.80;;;;;;5015983;28;20048;-72
2021/12/28 10:42:42;;;;;;;1.65;0.77;;;7.20;89.90;;;;;;5016593;28;20092;-71
2021/12/28 10:45:12;;;;;;;0.95;0.40;;;7.20;89.90;;;;;;5017670;28;20046;-72
2021/12/28 10:47:41;;;;;;;1.13;0.37;;;7.20;89.90;;;;;;5017142;28;20457;-70
2021/12/28 10:50:23;;;;;;;1.08;0.40;;;7.20;89.90;;;;;;5016087;28;20045;-71
2021/12/28 10:53:01;;;;;;;2.53;1.00;;;7.20;89.90;;;;;;5016161;28;20042;-70
2021/12/28 10:55:29;;;;;;;0.45;0.30;;;7.20;89.90;;;;;;5016089;28;20076;-72
2021/12/28 10:57:56;;;;;;;0.65;0.40;;;7.20;90.00;;;;;;5016226;28;20396;-71
2021/12/28 11:00:29;;;;;;;1.30;0.43;;;7.20;90.00;;;;;;5014646;28;20046;-73
2021/12/28 11:03:26;;;;;;;3.67;1.10;;;7.20;90.00;;;;;;5015906;28;20117;-72
2021/12/28 11:05:55;;;;;;;2.50;0.73;;;7.20;90.20;;;;;;5016728;28;20056;-71
2021/12/28 11:08:25;;;;;;;2.15;1.02;;;7.20;90.10;;;;;;5016953;28;20048;-71
2021/12/28 11:10:55;;;;;;;1.70;0.82;;;7.30;90.10;;;;;;5015481;28;20522;-71
2021/12/28 11:13:28;;;;;;;1.70;0.55;;;7.30;90.10;;;;;;5014982;28;20038;-70
2021/12/28 11:15:55;;;;;;;1.42;0.35;;;7.30;90.10;;;;;;5013895;28;20034;-71
2021/12/28 11:18:30;;;;;;;0.88;0.40;;;7.30;90.20;;;;;;5014755;28;20342;-71
2021/12/28 11:20:59;;;;;;;5.32;1.08;;;7.30;90.30;;;;;;5014056;28;20037;-71
2021/12/28 11:23:28;;;;;;;2.90;0.93;;;7.30;90.40;;;;;;5014849;28;20053;-71
2021/12/28 11:26:05;;;;;;;1.92;0.90;;;7.40;90.50;;;;;;5014577;28;20216;-71
2021/12/28 11:28:32;;;;;;;3.78;0.90;;;7.40;90.60;;;;;;5028984;28;20050;-72
2021/12/28 11:31:07;;;;;;;4.00;1.10;;;7.30;90.50;;;;;;5014441;28;20377;-70
2021/12/28 11:33:49;;;;;;;2.95;0.98;;;7.40;90.50;;;;;;5011545;28;20060;-70
2021/12/28 11:36:18;;;;;;;4.20;1.35;;;7.40;90.50;;;;;;5011008;28;20123;-71
2021/12/28 11:38:45;;;;;;;2.45;0.90;;;7.40;90.50;;;;;;5011122;28;20049;-72
2021/12/28 11:41:13;;;;;;;3.55;1.23;;;7.40;90.40;;;;;;5011539;28;20089;-71
2021/12/28 11:43:41;;;;;;;2.30;0.77;;;7.40;90.40;;;;;;5011759;28;20382;-70
2021/12/28 11:46:10;;;;;;;4.40;1.20;;;7.40;90.40;;;;;;5010153;28;20068;-71
2021/12/28 11:48:37;;;;;;;2.25;1.00;;;7.40;90.50;;;;;;5011059;28;20064;-71
2021/12/28 11:51:06;;;;;;;1.10;0.65;;;7.40;90.50;;;;;;5011306;28;20046;-72
2021/12/28 11:53:38;;;;;;;1.15;0.60;;;7.40;90.60;;;;;;5011008;28;20049;-72
2021/12/28 11:56:08;;;;;;;1.25;0.60;;;7.50;90.60;;;;;;5012418;28;20065;-72
2021/12/28 11:59:06;;;;;;;2.43;1.20;;;7.50;90.90;;;;;;5012540;28;20125;-71
2021/12/28 12:01:55;;;;;;;2.30;0.82;;;7.50;90.60;;;;;;5009567;28;20108;-70
2021/12/28 12:04:56;;;;;;;2.95;1.00;;;7.50;90.70;;;;;;5011835;28;20042;-73
2021/12/28 12:07:27;;;;;;;2.88;0.90;;;7.40;90.50;;;;;;5012084;28;20046;-71
2021/12/28 12:10:26;;;;;;;2.30;1.15;;;7.50;90.70;;;;;;5012016;28;20057;-72
2021/12/28 12:12:59;;;;;;;2.83;1.08;;;7.50;90.80;;;;;;5012978;28;20057;-72
2021/12/28 12:15:28;;;;;;;3.28;0.85;;;7.50;90.80;;;;;;5012435;28;20066;-72
2021/12/28 12:18:01;;;;;;;1.98;0.70;;;7.50;90.70;;;;;;5012390;28;20121;-72
2021/12/28 12:20:33;;;;;;;1.42;0.63;;;7.50;90.80;;;;;;5011495;28;20053;-71
2021/12/28 12:23:18;;;;;;;1.90;0.98;;;7.60;90.90;;;;;;5012570;28;20069;-71
2021/12/28 12:26:06;;;;;;;1.80;0.77;;;7.60;90.80;;;;;;5011712;28;20038;-70
2021/12/28 12:28:37;;;;;;;1.23;0.60;;;7.60;90.90;;;;;;5012072;28;20252;-71
2021/12/28 12:31:05;;;;;;;2.10;1.08;;;7.60;90.90;;;;;;5011039;28;20423;-71
2021/12/28 12:33:37;;;;;;;2.28;0.88;;;7.60;91.00;;;;;;5011382;28;20507;-72
2021/12/28 12:36:08;;;;;;;2.22;0.95;;;7.60;90.90;;;;;;5011603;28;20045;-70
2021/12/28 12:38:40;;;;;;;2.97;1.35;;;7.60;90.80;;;;;;5012314;28;20738;-71
2021/12/28 12:41:13;;;;;;;4.20;1.30;;;7.60;90.80;;;;;;5011884;28;20041;-72
2021/12/28 12:43:45;;;;;;;3.80;1.05;;;7.60;90.90;;;;;;5012564;28;20044;-71
2021/12/28 12:46:18;;;;;;;2.45;1.08;;;7.60;90.80;;;;;;5011521;28;20044;-72
2021/12/28 12:49:21;;;;;;;2.53;0.98;;;7.60;90.80;;;;;;5026947;28;20052;-71
2021/12/28 12:51:58;;;;;;;3.83;1.73;;;7.60;90.70;;;;;;5011486;28;20134;-72
2021/12/28 12:54:29;;;;;;;2.90;1.17;;;7.60;90.80;;;;;;5008795;28;20049;-70
2021/12/28 12:57:12;;;;;;;4.22;1.65;;;7.60;90.90;;;;;;5010466;28;20046;-72
2021/12/28 12:59:46;;;;;;;4.20;1.50;;;7.60;90.90;;;;;;5008874;28;20049;-72
2021/12/28 13:02:32;;;;;;;3.13;1.13;;;7.60;90.80;;;;;;5006986;28;20136;-70
2021/12/28 13:05:11;;;;;;;4.68;1.52;;;7.60;90.80;;;;;;5009401;28;20121;-70
2021/12/28 13:07:39;;;;;;;5.22;1.48;;;7.60;90.80;;;;;;5009246;28;20753;-72
2021/12/28 13:10:12;;;;;;;3.35;1.35;;;7.60;91.00;;;;;;5008200;28;20082;-71
2021/12/28 13:12:41;;;;;;;2.83;1.50;;;7.60;91.00;;;;;;5008657;28;20480;-71